Time;durP1;ratioP1;P1;durP2;ratioP2;P2;SDS_P1;SDS_P2;PMS_P1;PMS_P2;Temp;Humidity;BMP_temperature;BMP_pressure;BME280_temperature;BME280_humidity;BME280_pressure;Samples;Min_cycle;Max_cycle;Signal;HPM_P1;HPM_P2
2021/07/24 00:00:58;;;;;;;17.12;10.85;;;;;;;15.98;78.48;100108.11;1785110;80;21033;-90
2021/07/24 00:03:24;;;;;;;14.43;10.65;;;;;;;15.94;78.70;100106.75;1784735;80;21471;-90
2021/07/24 00:05:50;;;;;;;16.10;12.05;;;;;;;15.91;78.81;100108.37;1785260;80;21097;-89
2021/07/24 00:08:16;;;;;;;19.05;11.57;;;;;;;15.88;78.97;100102.03;1784970;80;21519;-90
2021/07/24 00:10:42;;;;;;;19.92;11.63;;;;;;;15.85;79.16;100104.48;1785204;80;20985;-90
2021/07/24 00:13:08;;;;;;;15.90;11.97;;;;;;;15.78;79.23;100100.77;1785039;80;20974;-90
2021/07/24 00:15:34;;;;;;;19.70;12.90;;;;;;;15.74;79.06;100099.90;1754466;80;20978;-90
2021/07/24 00:18:01;;;;;;;16.67;12.60;;;;;;;15.73;79.21;100097.73;1785144;80;21471;-90
2021/07/24 00:20:26;;;;;;;20.00;12.58;;;;;;;15.72;79.61;100089.39;1785250;80;21040;-90
2021/07/24 00:22:52;;;;;;;17.17;12.25;;;;;;;15.71;79.59;100091.72;1784930;80;21016;-90
2021/07/24 00:25:20;;;;;;;20.10;12.70;;;;;;;15.70;79.82;100091.38;1785489;80;21009;-89
2021/07/24 00:27:46;;;;;;;17.67;12.25;;;;;;;15.68;79.78;100090.19;1785097;80;21497;-91
2021/07/24 00:30:12;;;;;;;19.05;13.28;;;;;;;15.66;80.04;100090.84;1785209;80;20958;-90
2021/07/24 00:32:38;;;;;;;19.75;11.63;;;;;;;15.62;80.15;100086.76;1785021;80;21017;-90
2021/07/24 00:35:06;;;;;;;20.40;12.75;;;;;;;15.59;80.07;100095.03;1785280;80;21017;-90
2021/07/24 00:37:32;;;;;;;19.48;13.43;;;;;;;15.58;80.33;100097.36;1785119;80;21527;-90
2021/07/24 00:39:58;;;;;;;17.15;11.83;;;;;;;15.55;80.17;100091.01;1785382;80;21032;-90
2021/07/24 00:42:26;;;;;;;16.93;11.57;;;;;;;15.56;80.41;100093.17;1784982;80;21016;-90
2021/07/24 00:45:00;;;;;;;16.52;12.25;;;;;;;15.53;80.34;100093.46;1785118;80;21065;-90
2021/07/24 00:47:39;;;;;;;15.70;11.53;;;;;;;15.49;80.51;100088.94;1784992;80;21000;-90
2021/07/24 00:50:10;;;;;;;17.02;12.00;;;;;;;15.45;80.50;100083.58;1785242;80;20965;-90
2021/07/24 00:52:39;;;;;;;18.02;11.90;;;;;;;15.40;80.53;100087.16;1784192;80;21061;-91
2021/07/24 00:55:05;;;;;;;20.05;11.43;;;;;;;15.36;80.46;100083.13;1784294;80;21034;-90
2021/07/24 00:57:31;;;;;;;17.17;10.93;;;;;;;15.32;80.47;100081.27;1785008;80;21285;-90
2021/07/24 00:59:56;;;;;;;16.67;10.72;;;;;;;15.30;80.63;100079.27;1785317;80;21515;-90
2021/07/24 01:02:22;;;;;;;15.60;12.35;;;;;;;15.23;80.40;100067.53;1784967;80;20958;-91
2021/07/24 01:04:48;;;;;;;15.75;11.33;;;;;;;15.29;80.62;100072.26;1785301;80;20977;-90
2021/07/24 01:07:16;;;;;;;15.43;12.30;;;;;;;15.28;80.65;100074.58;1785036;80;21017;-91
2021/07/24 01:09:42;;;;;;;18.82;12.35;;;;;;;15.25;80.79;100071.72;1785214;80;21511;-90
2021/07/24 01:12:08;;;;;;;19.37;13.75;;;;;;;15.22;80.81;100074.67;1785046;80;21052;-90
2021/07/24 01:14:35;;;;;;;19.23;12.55;;;;;;;15.21;80.77;100074.33;1785162;80;20974;-90
2021/07/24 01:17:01;;;;;;;19.70;12.93;;;;;;;15.20;80.73;100074.46;1784967;80;21037;-90
2021/07/24 01:19:27;;;;;;;16.10;11.10;;;;;;;15.19;80.93;100076.78;1785278;80;21029;-90
2021/07/24 01:21:55;;;;;;;18.98;11.83;;;;;;;15.19;81.04;100076.78;1784930;80;21030;-91
2021/07/24 01:24:21;;;;;;;15.65;11.57;;;;;;;15.16;80.97;100080.56;1785172;80;21001;-91
2021/07/24 01:26:47;;;;;;;16.23;10.65;;;;;;;15.14;80.97;100085.21;1784979;80;21004;-91
2021/07/24 01:29:15;;;;;;;15.38;10.35;;;;;;;15.11;80.93;100087.33;1784923;80;21049;-91
2021/07/24 01:31:42;;;;;;;15.38;10.45;;;;;;;15.08;81.11;100083.63;1785120;80;20962;-91
2021/07/24 01:34:09;;;;;;;13.98;10.75;;;;;;;15.04;81.18;100087.54;1785116;80;21515;-92
2021/07/24 01:36:35;;;;;;;16.67;10.78;;;;;;;14.99;81.27;100087.98;1785079;80;21487;-91
2021/07/24 01:39:01;;;;;;;15.90;11.10;;;;;;;14.98;81.48;100085.00;1785240;80;21069;-91
2021/07/24 01:41:27;;;;;;;14.83;11.35;;;;;;;14.96;81.48;100077.66;1785132;80;21503;-91
2021/07/24 01:43:53;;;;;;;14.35;11.50;;;;;;;14.95;81.60;100078.15;1785164;80;21041;-91
2021/07/24 01:46:19;;;;;;;17.12;10.65;;;;;;;14.94;81.82;100069.84;1785206;80;21013;-91
2021/07/24 01:48:54;;;;;;;16.48;11.63;;;;;;;14.92;81.88;100077.60;1784998;80;21040;-91
2021/07/24 01:54:33;;;;;;;16.37;11.95;;;;;;;14.89;82.07;100075.23;1759365;80;21586;-91
2021/07/24 01:57:03;;;;;;;16.10;11.25;;;;;;;14.88;81.99;100069.59;1785133;80;21702;-91
2021/07/24 01:59:34;;;;;;;16.82;11.60;;;;;;;14.87;81.91;100072.73;1785218;80;21037;-91
2021/07/24 02:02:00;;;;;;;16.25;11.45;;;;;;;14.86;82.04;100068.39;1784268;80;21049;-91
2021/07/24 02:04:30;;;;;;;15.93;11.53;;;;;;;14.86;82.12;100061.74;1785187;80;21046;-91
2021/07/24 02:06:56;;;;;;;16.50;11.28;;;;;;;14.85;82.11;100062.73;1785002;80;21020;-91
2021/07/24 02:09:21;;;;;;;19.00;12.90;;;;;;;14.85;82.47;100061.41;1785198;80;21514;-90
2021/07/24 02:11:48;;;;;;;15.55;11.65;;;;;;;14.84;82.61;100059.74;1784999;80;20957;-90
2021/07/24 02:14:14;;;;;;;20.43;11.97;;;;;;;14.83;82.77;100060.70;1785160;80;21081;-91
2021/07/24 02:16:40;;;;;;;16.60;12.28;;;;;;;14.83;82.60;100059.88;1785108;80;21056;-91
2021/07/24 02:19:07;;;;;;;18.25;12.13;;;;;;;14.83;82.63;100062.53;1785171;80;21514;-92
2021/07/24 02:21:33;;;;;;;17.15;12.60;;;;;;;14.82;82.43;100063.52;1785070;80;21368;-91
2021/07/24 02:23:59;;;;;;;16.37;11.43;;;;;;;14.82;82.79;100061.70;1785090;80;21033;-91
2021/07/24 02:26:25;;;;;;;18.23;12.30;;;;;;;14.81;82.74;100051.20;1785190;80;21519;-91
2021/07/24 02:28:51;;;;;;;17.35;12.75;;;;;;;14.80;82.85;100051.70;1785142;80;21020;-90
2021/07/24 02:31:17;;;;;;;18.23;13.62;;;;;;;14.80;82.87;100050.37;1785156;80;21068;-91
2021/07/24 02:33:42;;;;;;;18.40;12.65;;;;;;;14.77;82.75;100048.00;1772186;80;20961;-92
2021/07/24 02:36:08;;;;;;;17.17;12.75;;;;;;;14.75;82.80;100055.30;1749039;81;21496;-92
2021/07/24 02:38:34;;;;;;;19.02;12.88;;;;;;;14.73;82.90;100050.61;1748839;81;21006;-91
2021/07/24 02:41:02;;;;;;;20.25;11.80;;;;;;;14.70;82.90;100051.72;1749354;81;21480;-92
2021/07/24 02:43:28;;;;;;;18.17;12.10;;;;;;;14.70;82.82;100054.37;1748594;81;21081;-92
2021/07/24 02:45:54;;;;;;;18.05;11.93;;;;;;;14.69;83.05;100051.89;1759119;81;21040;-92
2021/07/24 02:48:20;;;;;;;16.93;11.75;;;;;;;14.67;82.92;100052.51;1764438;81;21088;-91
2021/07/24 02:50:46;;;;;;;15.08;11.22;;;;;;;14.65;82.77;100050.51;1753371;81;20958;-90
2021/07/24 02:53:11;;;;;;;15.48;11.43;;;;;;;14.65;83.02;100046.52;1749748;81;20966;-90
2021/07/24 02:55:37;;;;;;;16.35;11.30;;;;;;;14.66;82.94;100046.86;1764443;81;20996;-91
2021/07/24 02:58:03;;;;;;;16.37;11.30;;;;;;;14.66;83.03;100048.19;1764396;81;21024;-92
2021/07/24 03:00:29;;;;;;;18.35;11.97;;;;;;;14.64;83.03;100047.02;1739577;82;21022;-93
2021/07/24 03:02:55;;;;;;;15.00;11.70;;;;;;;14.60;82.90;100050.92;1749070;81;21492;-93
2021/07/24 03:05:21;;;;;;;14.58;11.53;;;;;;;14.57;82.87;100053.03;1748908;82;21046;-91
2021/07/24 03:07:47;;;;;;;16.35;11.68;;;;;;;14.53;82.82;100050.66;1748798;82;20983;-91
2021/07/24 03:10:13;;;;;;;16.30;10.98;;;;;;;14.54;83.14;100053.68;1748838;81;21020;-91
2021/07/24 03:12:38;;;;;;;15.25;11.53;;;;;;;14.53;83.26;100054.64;1748890;81;21042;-93
2021/07/24 03:15:06;;;;;;;15.55;12.65;;;;;;;14.52;83.25;100053.47;1749048;81;20943;-91
2021/07/24 03:17:32;;;;;;;15.60;11.95;;;;;;;14.49;83.23;100047.92;1748815;81;20976;-91
2021/07/24 03:19:58;;;;;;;15.20;11.73;;;;;;;14.50;83.48;100051.41;1748926;81;20949;-91
2021/07/24 03:22:25;;;;;;;15.32;11.22;;;;;;;14.49;83.42;100053.72;1748752;81;21553;-91
2021/07/24 03:24:56;;;;;;;18.60;13.08;;;;;;;14.46;83.51;100053.52;1748913;81;20972;-92
2021/07/24 03:27:22;;;;;;;17.70;12.93;;;;;;;14.45;83.66;100053.67;1748653;81;21047;-91
2021/07/24 03:29:48;;;;;;;21.30;13.05;;;;;;;14.45;83.53;100052.34;1748982;82;21065;-92
2021/07/24 03:32:14;;;;;;;12.90;11.22;;;;;;;14.44;83.64;100048.82;1748477;81;21101;-91
2021/07/24 03:34:40;;;;;;;17.62;12.40;;;;;;;14.44;84.01;100051.48;1749005;82;21123;-92
2021/07/24 03:37:06;;;;;;;18.45;13.03;;;;;;;14.42;84.15;100049.47;1748737;82;20968;-91
2021/07/24 03:39:32;;;;;;;15.48;11.63;;;;;;;14.41;84.30;100058.43;1749150;81;21007;-92
2021/07/24 03:41:58;;;;;;;16.57;12.53;;;;;;;14.39;84.24;100060.38;1748799;81;21463;-91
2021/07/24 03:44:23;;;;;;;15.20;11.48;;;;;;;14.39;84.50;100055.06;1748824;82;20995;-91
2021/07/24 03:46:49;;;;;;;19.60;12.43;;;;;;;14.40;84.43;100062.53;1747696;81;21007;-91
2021/07/24 03:49:15;;;;;;;18.40;12.90;;;;;;;14.41;84.57;100059.75;1747637;81;21105;-91
2021/07/24 03:51:41;;;;;;;17.80;13.62;;;;;;;14.43;84.69;100060.92;1747928;81;21372;-91
2021/07/24 03:54:07;;;;;;;17.85;12.18;;;;;;;14.43;85.04;100060.44;1747975;82;20973;-92
2021/07/24 03:56:33;;;;;;;19.37;13.32;;;;;;;14.42;85.11;100064.08;1759179;81;20993;-91
2021/07/24 03:58:59;;;;;;;21.68;13.60;;;;;;;14.42;84.87;100065.41;1764246;81;21503;-92
2021/07/24 04:01:27;;;;;;;15.32;12.28;;;;;;;14.42;84.62;100053.95;1764111;81;21013;-91
2021/07/24 04:03:53;;;;;;;17.80;12.80;;;;;;;14.45;84.69;100058.48;1764202;81;21001;-92
2021/07/24 04:06:26;;;;;;;19.73;14.87;;;;;;;14.47;84.80;100055.67;1764338;81;21521;-91
2021/07/24 04:08:55;;;;;;;18.57;13.13;;;;;;;14.50;84.99;100056.72;1763333;81;21025;-91
2021/07/24 04:11:22;;;;;;;20.15;12.37;;;;;;;14.54;85.46;100060.32;1764422;81;20987;-91
2021/07/24 04:13:48;;;;;;;18.85;13.03;;;;;;;14.58;85.26;100054.69;1764222;81;21433;-92
2021/07/24 04:16:15;;;;;;;21.23;13.60;;;;;;;14.61;84.63;100056.59;1764451;81;20992;-91
2021/07/24 04:18:41;;;;;;;19.23;13.35;;;;;;;14.65;85.11;100056.66;1764198;81;20965;-90
2021/07/24 04:21:07;;;;;;;18.73;14.60;;;;;;;14.69;85.04;100059.85;1764266;81;21535;-90
2021/07/24 04:23:33;;;;;;;20.70;13.15;;;;;;;14.73;85.43;100059.41;1764344;81;21013;-90
2021/07/24 04:26:00;;;;;;;18.23;12.65;;;;;;;14.77;85.70;100054.64;1764381;81;20961;-91
2021/07/24 04:28:26;;;;;;;17.57;12.90;;;;;;;14.81;85.42;100057.37;1764184;81;21009;-91
2021/07/24 04:30:52;;;;;;;20.15;13.22;;;;;;;14.85;85.21;100055.27;1764341;81;21045;-91
2021/07/24 04:33:18;;;;;;;18.17;13.55;;;;;;;14.92;84.80;100059.84;1764216;81;21020;-92
2021/07/24 04:35:48;;;;;;;18.48;13.62;;;;;;;14.92;84.80;100059.84;1764360;81;21487;-92
2021/07/24 04:38:16;;;;;;;19.80;13.95;;;;;;;14.97;85.26;100060.72;1764424;81;20977;-91
2021/07/24 04:40:41;;;;;;;17.20;13.43;;;;;;;15.00;85.38;100054.65;1764448;81;21004;-90
2021/07/24 04:43:08;;;;;;;19.10;14.28;;;;;;;15.07;85.35;100051.38;1764303;81;21004;-90
2021/07/24 04:45:34;;;;;;;17.27;13.48;;;;;;;15.12;85.83;100049.13;1764754;81;21021;-90
2021/07/24 04:48:00;;;;;;;18.10;12.90;;;;;;;15.16;85.42;100046.52;1764318;81;21023;-91
2021/07/24 04:50:27;;;;;;;20.37;14.07;;;;;;;15.20;85.43;100050.55;1764418;81;21055;-90
2021/07/24 04:52:54;;;;;;;17.52;13.53;;;;;;;15.25;85.22;100049.63;1751057;81;20990;-90
2021/07/24 04:55:21;;;;;;;17.95;13.85;;;;;;;15.28;85.21;100043.18;1746710;81;21555;-91
2021/07/24 04:57:47;;;;;;;17.32;13.98;;;;;;;15.32;85.64;100048.53;1748937;81;20989;-90
2021/07/24 05:00:14;;;;;;;20.25;13.43;;;;;;;15.36;85.74;100043.26;1764164;81;21021;-90
2021/07/24 05:02:42;;;;;;;19.07;14.18;;;;;;;15.40;85.96;100049.47;1750467;81;21464;-91
2021/07/24 05:05:09;;;;;;;22.65;15.32;;;;;;;15.43;85.64;100045.66;1748844;81;21057;-90
2021/07/24 05:07:36;;;;;;;21.23;14.70;;;;;;;15.48;85.86;100050.05;1764375;81;20996;-90
2021/07/24 05:10:08;;;;;;;17.05;14.35;;;;;;;15.53;85.73;100050.92;1760575;81;21023;-90
2021/07/24 05:12:31;;;;;;;18.57;14.25;;;;;;;15.57;85.87;100049.16;1763482;81;21016;-90
2021/07/24 05:14:57;;;;;;;21.12;16.02;;;;;;;15.62;85.98;100055.34;1750374;81;20947;-89
2021/07/24 05:17:22;;;;;;;20.50;15.05;;;;;;;15.66;85.77;100048.30;1748465;81;21539;-90
2021/07/24 05:19:48;;;;;;;20.23;14.07;;;;;;;15.71;85.71;100053.15;1761052;81;20929;-89
2021/07/24 05:22:15;;;;;;;21.12;14.65;;;;;;;15.77;85.93;100049.05;1759326;81;20982;-89
2021/07/24 05:24:45;;;;;;;17.27;14.35;;;;;;;15.83;86.11;100055.94;1754032;81;21478;-89
2021/07/24 05:27:13;;;;;;;18.80;15.60;;;;;;;15.88;86.25;100044.83;1764047;81;21037;-89
2021/07/24 05:29:40;;;;;;;21.30;15.25;;;;;;;15.94;86.29;100037.56;1764165;81;21028;-89
2021/07/24 05:32:07;;;;;;;17.82;13.35;;;;;;;16.00;86.29;100044.11;1763717;81;21001;-88
2021/07/24 05:34:33;;;;;;;22.50;15.32;;;;;;;16.06;85.96;100042.17;1764223;81;21488;-88
2021/07/24 05:36:59;;;;;;;20.68;14.35;;;;;;;16.10;85.77;100042.20;1752700;81;20997;-88
2021/07/24 05:39:25;;;;;;;19.17;13.85;;;;;;;16.15;86.04;100048.70;1748680;82;21002;-88
2021/07/24 05:41:51;;;;;;;20.43;15.00;;;;;;;16.22;85.85;100053.42;1759148;81;21432;-88
2021/07/24 05:44:18;;;;;;;22.32;16.27;;;;;;;16.29;86.00;100047.84;1758447;81;20996;-89
2021/07/24 05:46:45;;;;;;;21.48;14.55;;;;;;;16.36;85.88;100050.22;1750809;81;20977;-88
2021/07/24 05:49:11;;;;;;;21.23;14.55;;;;;;;16.43;85.72;100049.10;1764282;81;21112;-89
2021/07/24 05:51:39;;;;;;;16.50;12.55;;;;;;;16.49;85.57;100055.14;1759220;81;21001;-89
2021/07/24 05:54:07;;;;;;;19.55;13.88;;;;;;;16.53;85.31;100052.50;1751183;81;21013;-88
2021/07/24 05:56:36;;;;;;;23.35;13.50;;;;;;;16.58;85.22;100051.52;1756886;81;21385;-88
2021/07/24 05:59:03;;;;;;;20.88;14.20;;;;;;;16.63;85.28;100050.56;1762684;81;21008;-88
2021/07/24 06:01:29;;;;;;;23.10;14.85;;;;;;;16.70;85.50;100052.10;1763796;81;21041;-88
2021/07/24 06:03:56;;;;;;;17.70;12.88;;;;;;;16.76;85.26;100053.67;1763970;81;21020;-89
2021/07/24 06:06:22;;;;;;;20.08;12.90;;;;;;;16.82;84.92;100054.88;1759295;81;20984;-88
2021/07/24 06:08:48;;;;;;;19.80;13.18;;;;;;;16.88;85.00;100057.74;1764138;81;21049;-89
2021/07/24 06:11:14;;;;;;;17.55;13.25;;;;;;;16.95;85.05;100053.12;1757717;81;20978;-88
2021/07/24 06:13:40;;;;;;;19.85;13.10;;;;;;;17.00;85.23;100051.63;1752653;81;21046;-88
2021/07/24 06:16:10;;;;;;;19.42;15.03;;;;;;;17.08;84.96;100048.18;1753329;81;20985;-87
2021/07/24 06:18:37;;;;;;;24.40;12.60;;;;;;;17.16;85.12;100049.53;1757375;81;21030;-87
2021/07/24 06:21:03;;;;;;;18.23;14.05;;;;;;;17.23;85.08;100049.22;1744949;81;20977;-88
2021/07/24 06:23:29;;;;;;;20.12;12.00;;;;;;;17.31;85.08;100047.93;1743916;81;20951;-88
2021/07/24 06:25:55;;;;;;;14.87;11.57;;;;;;;17.40;84.81;100050.61;1744814;81;21456;-88
2021/07/24 06:28:24;;;;;;;15.43;10.15;;;;;;;17.49;84.24;100050.98;1742924;82;21009;-88
2021/07/24 06:30:50;;;;;;;14.85;10.85;;;;;;;17.56;84.11;100050.66;1747206;81;20986;-88
2021/07/24 06:33:16;;;;;;;15.83;12.35;;;;;;;17.65;83.61;100043.02;1744730;82;20991;-87
2021/07/24 06:35:42;;;;;;;16.12;11.22;;;;;;;17.73;83.76;100047.02;1748724;81;20986;-87
2021/07/24 06:38:09;;;;;;;15.85;11.97;;;;;;;17.83;83.90;100046.89;1748797;81;21006;-88
2021/07/24 06:40:35;;;;;;;14.93;10.98;;;;;;;17.92;83.92;100051.75;1748588;81;20994;-90
2021/07/24 06:43:05;;;;;;;14.15;11.03;;;;;;;18.01;83.89;100051.59;1748769;81;21009;-83
2021/07/24 06:45:31;;;;;;;13.32;10.50;;;;;;;18.12;83.62;100049.59;1748586;81;20981;-83
2021/07/24 06:47:57;;;;;;;14.43;10.50;;;;;;;18.20;83.26;100054.95;1748226;82;21045;-84
2021/07/24 06:50:26;;;;;;;15.10;12.13;;;;;;;18.30;82.89;100054.27;1748570;81;20982;-83
2021/07/24 06:52:52;;;;;;;12.82;11.45;;;;;;;18.41;82.88;100059.26;1748956;81;21066;-84
2021/07/24 06:55:19;;;;;;;16.07;10.78;;;;;;;18.53;82.58;100058.42;1748477;81;21425;-84
2021/07/24 06:57:46;;;;;;;14.50;10.95;;;;;;;18.64;82.51;100054.05;1748723;81;21410;-84
2021/07/24 07:00:12;;;;;;;12.63;10.43;;;;;;;18.85;82.15;100048.68;1755704;80;21028;-86
2021/07/24 07:02:38;;;;;;;16.85;10.18;;;;;;;18.85;82.15;100048.68;1772984;80;20985;-84
2021/07/24 07:05:05;;;;;;;17.27;11.48;;;;;;;18.96;81.97;100048.33;1723259;80;21332;-85
2021/07/24 07:07:31;;;;;;;14.73;10.93;;;;;;;19.07;81.58;100053.80;1718587;80;20953;-85
2021/07/24 07:09:57;;;;;;;15.68;10.72;;;;;;;19.17;81.65;100050.41;1745713;80;21041;-85
2021/07/24 07:12:23;;;;;;;16.45;11.68;;;;;;;19.28;81.68;100054.53;1748101;81;21499;-84
2021/07/24 07:14:49;;;;;;;13.50;11.55;;;;;;;19.38;81.99;100052.48;1726958;80;21476;-86
2021/07/24 07:17:17;;;;;;;15.03;11.35;;;;;;;19.36;82.16;100034.45;1759018;81;20981;-86
2021/07/24 07:19:43;;;;;;;13.95;10.70;;;;;;;19.58;81.63;100060.93;1767638;80;21492;-84
2021/07/24 07:22:09;;;;;;;15.20;11.38;;;;;;;19.68;81.63;100057.05;1747633;81;21448;-84
2021/07/24 07:25:01;;;;;;;;;;;;;;;;;;;;;
2021/07/24 07:27:19;;;;;;;13.75;12.25;;;;;;;19.93;80.80;100056.86;1656702;86;21084;-87
2021/07/24 07:36:02;;;;;;;14.20;11.03;;;;;;;20.22;80.31;100057.98;1630660;87;22443;-86
2021/07/24 07:38:28;;;;;;;13.53;10.23;;;;;;;20.38;79.67;100055.16;1643501;85;21592;-86
2021/07/24 07:40:54;;;;;;;17.32;11.43;;;;;;;20.46;80.16;100055.08;1669668;85;21076;-86
2021/07/24 07:43:22;;;;;;;12.10;10.80;;;;;;;20.56;79.69;100055.67;1725487;81;21044;-86
2021/07/24 07:45:47;;;;;;;15.98;10.48;;;;;;;20.67;79.72;100053.59;1752994;81;20973;-86
2021/07/24 07:48:13;;;;;;;11.68;9.75;;;;;;;20.77;79.33;100053.64;1763365;81;21027;-86
2021/07/24 07:50:41;;;;;;;14.53;10.95;;;;;;;20.90;78.82;100054.34;1759722;81;21009;-86
2021/07/24 07:53:07;;;;;;;17.67;11.03;;;;;;;21.02;78.74;100059.53;1757852;81;20993;-86
2021/07/24 07:55:33;;;;;;;15.25;10.60;;;;;;;21.14;78.98;100057.74;1759129;81;21013;-85
2021/07/24 07:57:59;;;;;;;13.15;10.50;;;;;;;21.24;78.02;100051.58;1750939;80;21114;-86
2021/07/24 08:00:26;;;;;;;13.88;10.00;;;;;;;21.35;78.19;100046.27;1744685;80;20970;-86
2021/07/24 08:02:54;;;;;;;13.48;10.20;;;;;;;21.45;77.64;100043.59;1748455;81;21027;-86
2021/07/24 08:05:21;;;;;;;12.70;10.05;;;;;;;21.59;77.34;100043.26;1763142;81;20989;-85
2021/07/24 08:07:47;;;;;;;16.30;11.35;;;;;;;21.72;76.36;100046.60;1749219;81;21459;-86
2021/07/24 08:10:13;;;;;;;12.18;9.25;;;;;;;21.85;76.91;100041.36;1748004;82;21069;-85
2021/07/24 08:12:39;;;;;;;14.93;10.50;;;;;;;21.98;75.97;100044.66;1748003;82;21001;-86
2021/07/24 08:15:06;;;;;;;12.60;9.98;;;;;;;22.08;75.39;100043.85;1704004;82;20999;-85
2021/07/24 08:17:32;;;;;;;25.82;9.40;;;;;;;22.17;75.31;100040.53;1729065;83;21044;-87
2021/07/24 08:19:57;;;;;;;12.05;9.50;;;;;;;22.32;75.21;100043.15;1729662;83;21468;-87
2021/07/24 08:22:23;;;;;;;15.55;8.55;;;;;;;22.42;75.20;100040.95;1729032;83;21041;-86
2021/07/24 08:24:49;;;;;;;11.57;9.53;;;;;;;22.53;74.53;100035.02;1729969;83;21025;-86
2021/07/24 08:27:15;;;;;;;12.75;10.25;;;;;;;22.66;73.57;100030.25;1729078;83;20996;-86
2021/07/24 08:29:41;;;;;;;14.40;9.83;;;;;;;22.78;74.08;100022.47;1729615;83;21543;-87
2021/07/24 08:32:10;;;;;;;9.93;8.93;;;;;;;22.92;74.44;100028.23;1736981;82;20978;-87
2021/07/24 08:34:36;;;;;;;11.55;7.70;;;;;;;23.04;73.03;100019.13;1748596;81;20998;-84
2021/07/24 08:37:03;;;;;;;10.20;7.70;;;;;;;23.16;71.13;100020.19;1748168;82;20997;-85
2021/07/24 08:39:29;;;;;;;11.22;9.38;;;;;;;23.28;71.33;100017.24;1748624;82;21002;-86
2021/07/24 08:41:55;;;;;;;11.15;7.97;;;;;;;23.34;71.53;100018.30;1749572;81;21531;-85
2021/07/24 08:44:21;;;;;;;11.70;8.45;;;;;;;23.41;70.02;100021.33;1749864;81;20980;-86
2021/07/24 08:46:47;;;;;;;13.13;7.97;;;;;;;23.51;69.91;100012.86;1751543;81;21499;-86
2021/07/24 08:49:13;;;;;;;11.45;9.10;;;;;;;23.59;69.04;100015.88;1751664;81;20953;-85
2021/07/24 08:51:40;;;;;;;11.18;7.83;;;;;;;23.69;70.28;100010.98;1763946;81;20985;-86
2021/07/24 08:54:06;;;;;;;18.67;9.08;;;;;;;23.85;69.89;100006.52;1763851;81;21189;-86
2021/07/24 08:56:41;;;;;;;10.28;8.45;;;;;;;24.03;67.82;100001.06;1763962;81;20982;-86
2021/07/24 08:59:06;;;;;;;11.30;8.28;;;;;;;24.20;67.63;100002.82;1763268;81;20978;-86
2021/07/24 09:01:34;;;;;;;11.93;7.72;;;;;;;24.32;67.31;99997.12;1749980;81;20985;-86
2021/07/24 09:04:05;;;;;;;11.78;7.58;;;;;;;24.43;66.40;99994.33;1763680;81;21056;-82
2021/07/24 09:06:31;;;;;;;9.03;7.90;;;;;;;24.55;67.01;99992.13;1749592;81;20978;-81
2021/07/24 09:08:57;;;;;;;9.15;8.03;;;;;;;24.70;66.84;99987.83;1748192;81;21013;-82
2021/07/24 09:11:23;;;;;;;8.73;7.08;;;;;;;24.86;66.04;99987.06;1748232;82;21499;-82
2021/07/24 09:13:49;;;;;;;7.47;6.65;;;;;;;25.00;65.49;99987.31;1748166;81;21013;-83
2021/07/24 09:16:16;;;;;;;9.90;7.80;;;;;;;25.12;64.96;99978.89;1748245;81;20966;-83
2021/07/24 09:18:42;;;;;;;9.18;7.47;;;;;;;25.32;64.81;99974.73;1748197;82;21014;-83
2021/07/24 09:21:08;;;;;;;6.80;6.08;;;;;;;25.47;62.78;99970.41;1748493;81;21029;-82
2021/07/24 09:23:39;;;;;;;6.92;6.20;;;;;;;25.60;61.59;99969.47;1748194;82;22417;-83
2021/07/24 09:26:06;;;;;;;9.08;6.15;;;;;;;25.70;61.33;99981.47;1748021;81;21593;-82
2021/07/24 09:28:33;;;;;;;8.73;7.15;;;;;;;25.76;60.14;99965.41;1748294;81;21068;-83
2021/07/24 09:31:21;;;;;;;8.33;7.50;;;;;;;25.86;60.40;99955.79;1748394;81;21002;-86
2021/07/24 09:33:50;;;;;;;12.47;7.75;;;;;;;26.03;59.18;99954.73;1745913;81;21516;-87
2021/07/24 09:36:31;;;;;;;8.25;7.45;;;;;;;26.12;60.54;99958.79;1749812;81;20970;-87
2021/07/24 09:39:14;;;;;;;6.75;5.97;;;;;;;26.23;58.70;99965.37;1735116;81;20997;-86
2021/07/24 09:41:43;;;;;;;9.65;6.15;;;;;;;26.33;58.41;99952.16;1750203;81;21543;-86
2021/07/24 09:44:10;;;;;;;8.25;5.85;;;;;;;26.51;57.63;99954.08;1748551;81;20939;-88
2021/07/24 09:46:36;;;;;;;7.40;5.90;;;;;;;26.64;57.61;99956.63;1748206;82;21501;-87
2021/07/24 09:49:14;;;;;;;6.83;5.75;;;;;;;26.78;56.89;99955.95;1748274;82;21026;-87
2021/07/24 09:51:44;;;;;;;7.85;5.92;;;;;;;26.89;55.88;99955.73;1750048;81;21602;-87
2021/07/24 09:54:27;;;;;;;9.30;6.22;;;;;;;26.97;55.69;99956.77;1762603;81;21005;-87
2021/07/24 09:56:54;;;;;;;9.23;6.25;;;;;;;27.07;54.18;99957.58;1740476;80;21032;-87
2021/07/24 09:59:31;;;;;;;9.43;7.03;;;;;;;27.20;53.02;99960.67;1742003;82;21034;-87
2021/07/24 10:02:06;;;;;;;8.13;6.55;;;;;;;27.28;54.42;99961.72;1737864;81;21052;-87
2021/07/24 10:04:38;;;;;;;7.53;6.08;;;;;;;27.37;54.60;99960.31;1748305;81;21062;-87
2021/07/24 10:07:09;;;;;;;7.20;6.50;;;;;;;27.47;52.82;99957.88;1747785;81;21013;-87
2021/07/24 10:09:39;;;;;;;7.97;6.75;;;;;;;27.54;51.74;99953.70;1748229;82;21025;-86
2021/07/24 10:12:10;;;;;;;6.95;6.25;;;;;;;27.63;52.63;99956.92;1739419;81;20961;-87
2021/07/24 10:14:37;;;;;;;7.03;6.33;;;;;;;27.73;52.39;99954.47;1763482;81;21050;-87
2021/07/24 10:17:04;;;;;;;8.40;6.58;;;;;;;27.81;51.71;99953.64;1763728;81;21008;-87
2021/07/24 10:19:30;;;;;;;6.72;6.03;;;;;;;27.90;52.31;99954.64;1758341;81;20991;-87
2021/07/24 10:21:58;;;;;;;7.08;6.20;;;;;;;27.99;51.72;99945.11;1748362;81;21046;-87
2021/07/24 10:24:25;;;;;;;6.75;6.12;;;;;;;28.11;51.03;99951.38;1748359;81;21464;-87
2021/07/24 10:27:10;;;;;;;7.70;6.72;;;;;;;28.20;51.16;99950.47;1748014;81;21034;-87
2021/07/24 10:29:45;;;;;;;6.97;6.25;;;;;;;28.22;49.23;99949.17;1762993;81;21483;-86
2021/07/24 10:32:16;;;;;;;6.92;6.00;;;;;;;28.25;48.39;99954.66;1761932;81;21017;-89
2021/07/24 10:34:51;;;;;;;7.58;6.85;;;;;;;28.29;48.42;99957.19;1763925;81;21480;-87
2021/07/24 10:37:44;;;;;;;7.85;6.15;;;;;;;28.32;48.41;99952.66;1762705;81;21090;-86
2021/07/24 10:40:24;;;;;;;6.60;5.90;;;;;;;28.42;48.31;99962.41;1763790;81;21113;-86
2021/07/24 10:42:51;;;;;;;6.47;5.80;;;;;;;28.48;48.64;99963.35;1763672;81;21492;-86
2021/07/24 10:45:45;;;;;;;11.38;7.28;;;;;;;28.50;48.20;99960.70;1763901;81;21476;-86
2021/07/24 10:48:19;;;;;;;7.12;6.40;;;;;;;28.52;47.38;99959.91;1756028;81;21057;-86
2021/07/24 10:51:00;;;;;;;6.62;6.03;;;;;;;28.65;47.94;99951.23;1748276;81;21040;-86
2021/07/24 10:53:28;;;;;;;6.73;5.83;;;;;;;28.80;47.87;99952.91;1748443;82;21611;-86
2021/07/24 10:55:56;;;;;;;7.25;6.28;;;;;;;28.88;47.30;99948.45;1748406;81;21473;-87
2021/07/24 10:58:28;;;;;;;7.97;6.10;;;;;;;28.95;46.79;99949.13;1748158;82;21006;-87
2021/07/24 11:01:02;;;;;;;12.28;6.75;;;;;;;29.04;46.78;99946.08;1748251;81;21061;-86
2021/07/24 11:03:46;;;;;;;7.62;6.28;;;;;;;29.11;45.58;99941.33;1755541;81;21001;-86
2021/07/24 11:06:30;;;;;;;6.97;6.20;;;;;;;29.19;45.08;99940.95;1762862;81;21071;-87
2021/07/24 11:09:09;;;;;;;6.62;5.95;;;;;;;29.23;44.70;99944.00;1762705;81;21049;-87
2021/07/24 11:11:41;;;;;;;6.72;6.03;;;;;;;29.26;44.76;99942.16;1763350;81;21052;-87
2021/07/24 11:14:10;;;;;;;10.38;5.92;;;;;;;29.34;44.23;99933.59;1763753;81;21012;-87
2021/07/24 11:17:08;;;;;;;7.05;6.30;;;;;;;29.39;44.26;99922.84;1760817;81;21004;-87
2021/07/24 11:19:53;;;;;;;6.50;5.85;;;;;;;29.50;44.91;99924.65;1754836;81;20978;-87
2021/07/24 11:22:27;;;;;;;6.78;6.08;;;;;;;29.65;44.61;99927.67;1748200;81;21049;-86
2021/07/24 11:24:59;;;;;;;7.22;6.53;;;;;;;29.75;44.28;99924.30;1748404;82;21021;-86
2021/07/24 11:27:35;;;;;;;7.40;5.33;;;;;;;29.79;43.50;99925.98;1748377;81;20962;-88
2021/07/24 11:30:10;;;;;;;6.58;5.65;;;;;;;29.85;44.13;99927.17;1747959;81;21057;-86